Tuesday, April 24, 2018, 9:03 PM EDT
Back to Local

KSFM, Sanford, Sanford Regional Airport

Location: Sanford, ME, United States Lat: 43.4
Local Time: 9:03 PM EDT ( 1:03 GMT) Lon: -70.717
Time Zone: US/Eastern Elev: 242 ft

Show me the last for .
Show Decoded

2018-04-24 19:56 METAR KSFM 242356Z AUTO 19008KT 160V230 10SM CLR 14/03 A3020 RMK AO2 SLP231
                 T01390028 10217 20139 55003 =
2018-04-24 18:56 METAR KSFM 242256Z AUTO 18007G16KT 10SM CLR 15/02 A3020 RMK AO2 SLP231 T01500022
                 =
2018-04-24 17:56 METAR KSFM 242156Z AUTO 20008G14KT 10SM CLR 18/01 A3021 RMK AO2 SLP233 T01780011
                 =
2018-04-24 16:56 METAR KSFM 242056Z AUTO 19009KT 160V230 10SM CLR 20/M01 A3021 RMK AO2 SLP235
                 T02001006 56013 =
2018-04-24 15:56 METAR KSFM 241956Z AUTO 16012G19KT 10SM CLR 19/M01 A3022 RMK AO2 SLP238
                 T01941006 =
2018-04-24 14:56 METAR KSFM 241856Z AUTO 19011G16KT 10SM CLR 21/M01 A3024 RMK AO2 SLP243
                 T02061011 =
2018-04-24 13:56 METAR KSFM 241756Z AUTO 21009KT 10SM CLR 21/M04 A3025 RMK AO2 SLP248 T02111039
                 10217 20094 56028 =
2018-04-24 12:56 METAR KSFM 241656Z AUTO 21008KT 10SM CLR 22/M04 A3028 RMK AO2 SLP256 T02171039 =
2018-04-24 11:56 METAR KSFM 241556Z AUTO 18009KT 150V220 10SM CLR 19/M02 A3031 RMK AO2 SLP267
                 T01891022 =
2018-04-24 10:56 METAR KSFM 241456Z AUTO VRB05KT 10SM CLR 18/M02 A3034 RMK AO2 SLP276 T01781017
                 58013 =
2018-04-24 09:56 METAR KSFM 241356Z AUTO 24007KT 10SM CLR 16/M03 A3036 RMK AO2 SLP284 T01561033 =
2018-04-24 08:56 METAR KSFM 241256Z AUTO 18005KT 10SM CLR 12/M03 A3037 RMK AO2 SLP288 T01221028 =
2018-04-24 07:56 METAR KSFM 241156Z AUTO 22004KT 10SM CLR 09/M03 A3037 RMK AO2 SLP289 T00941033
                 10094 20000 53002 =
2018-04-24 06:56 METAR KSFM 241056Z AUTO 00000KT 10SM CLR 01/M03 A3037 RMK AO2 SLP290 T00061028
                 FZRANO =
2018-04-24 05:56 METAR KSFM 240956Z AUTO 00000KT 10SM CLR 01/M04 A3037 RMK AO2 SLP288 T00111039
                 FZRANO =
2018-04-24 04:56 METAR KSFM 240856Z AUTO 21003KT 10SM CLR 02/M04 A3037 RMK AO2 SLP288 T00171044
                 56005 FZRANO =
2018-04-24 03:56 METAR KSFM 240756Z AUTO 23008KT 10SM CLR 04/M04 A3038 RMK AO2 SLP291 T00441044 =
2018-04-24 02:56 METAR KSFM 240656Z AUTO 22007KT 10SM CLR 06/M04 A3037 RMK AO2 SLP288 T00611044 =
2018-04-24 01:56 METAR KSFM 240556Z AUTO 22007KT 10SM CLR 06/M04 A3038 RMK AO2 SLP292 T00611044
                 10089 20050 58005 =
2018-04-24 00:56 METAR KSFM 240456Z AUTO 22005KT 10SM CLR 06/M04 A3039 RMK AO2 SLP295 T00561044 =
2018-04-23 23:56 METAR KSFM 240356Z AUTO 22003KT 10SM CLR 05/M05 A3040 RMK AO2 SLP297 T00501050
                 401721061 =
2018-04-23 22:56 METAR KSFM 240256Z AUTO 22005KT 10SM CLR 07/M05 A3040 RMK AO2 SLP298 T00721050
                 50001 =
2018-04-23 21:56 METAR KSFM 240156Z AUTO 22004KT 10SM CLR 07/M06 A3041 RMK AO2 SLP302 T00721061 =

Support USWX by starting your Amazon purchase here.